Time;durP1;ratioP1;P1;durP2;ratioP2;P2;SDS_P1;SDS_P2;PMS_P1;PMS_P2;Temp;Humidity;BMP_temperature;BMP_pressure;BME280_temperature;BME280_humidity;BME280_pressure;Samples;Min_cycle;Max_cycle;Signal;HPM_P1;HPM_P2
2022/09/08 00:00:29;;;;;;;0.70;0.60;;;15.50;99.90;;;;;;5117600;28;20278;-83
2022/09/08 00:02:55;;;;;;;1.93;0.73;;;;;;;;;;5116450;28;20204;-84
2022/09/08 00:05:24;;;;;;;1.90;0.50;;;15.40;99.90;;;;;;5116789;28;20641;-84
2022/09/08 00:07:53;;;;;;;0.57;0.53;;;15.40;99.90;;;;;;5118052;28;20251;-84
2022/09/08 00:10:19;;;;;;;5.87;0.87;;;;;;;;;;5118321;28;20279;-82
2022/09/08 00:12:48;;;;;;;1.10;0.63;;;15.50;99.90;;;;;;5118740;28;20267;-82
2022/09/08 00:15:14;;;;;;;1.33;0.60;;;15.50;99.90;;;;;;5118395;28;20529;-83
2022/09/08 00:17:40;;;;;;;2.23;0.73;;;15.60;99.90;;;;;;5117896;28;20167;-83
2022/09/08 00:20:08;;;;;;;1.40;0.67;;;15.50;99.90;;;;;;5117531;28;20245;-83
2022/09/08 00:22:33;;;;;;;1.20;0.70;;;15.50;99.90;;;;;;5118016;28;20222;-82
2022/09/08 00:24:59;;;;;;;2.80;0.70;;;;;;;;;;5117492;28;20664;-83
2022/09/08 00:27:25;;;;;;;0.57;0.50;;;;;;;;;;5117547;28;20218;-81
2022/09/08 00:29:51;;;;;;;1.30;0.60;;;15.50;99.90;;;;;;5118077;28;20206;-83
2022/09/08 00:32:19;;;;;;;1.07;0.80;;;15.50;99.90;;;;;;5118945;28;20191;-83
2022/09/08 00:34:45;;;;;;;1.13;0.63;;;15.50;99.90;;;;;;5117178;28;20171;-83
2022/09/08 00:37:11;;;;;;;1.27;0.80;;;15.40;99.90;;;;;;5118038;28;20168;-83
2022/09/08 00:39:37;;;;;;;1.23;0.70;;;;;;;;;;5118258;28;20183;-83
2022/09/08 00:42:05;;;;;;;1.80;0.60;;;;;;;;;;5116619;28;20661;-83
2022/09/08 00:44:49;;;;;;;0.80;0.63;;;15.40;99.90;;;;;;5116294;28;20203;-83
2022/09/08 00:47:22;;;;;;;1.17;0.80;;;15.50;99.90;;;;;;5117673;28;20606;-84
2022/09/08 00:49:52;;;;;;;1.10;0.63;;;15.50;99.90;;;;;;5116482;28;20211;-83
2022/09/08 00:52:18;;;;;;;1.73;0.93;;;15.60;99.90;;;;;;5116371;28;20282;-84
2022/09/08 00:54:47;;;;;;;1.23;0.93;;;15.50;99.90;;;;;;5117459;28;20159;-84
2022/09/08 00:57:13;;;;;;;1.13;0.90;;;15.50;99.90;;;;;;5116308;28;20156;-84
2022/09/08 00:59:40;;;;;;;1.80;1.03;;;;;;;;;;5116241;28;20214;-82
2022/09/08 01:02:23;;;;;;;4.50;1.30;;;15.50;99.90;;;;;;5116912;28;20195;-83
2022/09/08 01:04:55;;;;;;;5.10;1.27;;;15.50;99.90;;;;;;5117401;28;20160;-81
2022/09/08 01:13:26;;;;;;;1.33;1.00;;;15.30;99.90;;;;;;5117767;28;20163;-84
2022/09/08 01:15:55;;;;;;;1.07;0.97;;;15.30;99.90;;;;;;5117342;28;20600;-82
2022/09/08 01:18:21;;;;;;;1.73;1.00;;;15.30;99.90;;;;;;5115878;28;20632;-82
2022/09/08 01:21:16;;;;;;;3.27;1.27;;;15.20;99.90;;;;;;5117515;28;20191;-82
2022/09/08 01:24:07;;;;;;;2.90;1.10;;;15.00;99.90;;;;;;5115910;28;20629;-82
2022/09/08 01:26:45;;;;;;;2.20;1.00;;;15.10;99.90;;;;;;5117170;28;20156;-82
2022/09/08 01:29:12;;;;;;;3.13;1.43;;;15.00;99.90;;;;;;5117039;28;20648;-82
2022/09/08 01:31:41;;;;;;;1.43;0.90;;;15.00;99.90;;;;;;5116511;28;20230;-82
2022/09/08 01:34:07;;;;;;;1.33;1.20;;;15.00;99.90;;;;;;5115901;28;20164;-82
2022/09/08 01:36:33;;;;;;;1.67;1.20;;;15.00;99.90;;;;;;5116560;28;20194;-84
2022/09/08 01:38:59;;;;;;;1.90;0.90;;;;;;;;;;5115187;28;20310;-82
2022/09/08 01:41:25;;;;;;;1.67;1.03;;;15.00;99.90;;;;;;5116572;28;20286;-82
2022/09/08 01:43:50;;;;;;;1.67;0.97;;;15.10;99.90;;;;;;5116725;28;20220;-82
2022/09/08 01:46:16;;;;;;;1.47;0.90;;;;;;;;;;5115125;28;20172;-82
2022/09/08 01:48:42;;;;;;;1.87;1.10;;;15.10;99.90;;;;;;5115965;28;20244;-82
2022/09/08 01:51:08;;;;;;;1.63;1.17;;;;;;;;;;5116205;28;20676;-83
2022/09/08 01:53:35;;;;;;;1.67;1.20;;;15.20;99.90;;;;;;5116330;28;20683;-81
2022/09/08 01:56:01;;;;;;;1.30;1.00;;;15.20;99.90;;;;;;5115748;28;20558;-82
2022/09/08 01:58:27;;;;;;;1.93;1.00;;;15.20;99.90;;;;;;5117621;28;20652;-81
2022/09/08 02:00:54;;;;;;;2.87;1.30;;;;;;;;;;5115918;28;20192;-82
2022/09/08 02:03:19;;;;;;;2.67;1.10;;;15.20;99.90;;;;;;5114877;28;20172;-83
2022/09/08 02:05:46;;;;;;;1.20;1.10;;;;;;;;;;5116166;28;20179;-81
2022/09/08 02:08:12;;;;;;;2.27;1.00;;;;;;;;;;5114237;28;20216;-83
2022/09/08 02:10:38;;;;;;;2.17;1.20;;;15.20;99.90;;;;;;5115827;28;20545;-86
2022/09/08 02:13:05;;;;;;;2.53;1.10;;;15.20;99.90;;;;;;5116255;28;20705;-82
2022/09/08 02:15:31;;;;;;;2.73;1.80;;;15.20;99.90;;;;;;5115057;28;20179;-83
2022/09/08 02:17:57;;;;;;;1.50;0.93;;;;;;;;;;5116212;28;20183;-83
2022/09/08 02:20:24;;;;;;;1.77;1.00;;;15.20;99.90;;;;;;5116337;28;20171;-83
2022/09/08 02:22:52;;;;;;;3.73;1.10;;;15.20;99.90;;;;;;5116569;28;20182;-83
2022/09/08 02:25:18;;;;;;;2.77;1.20;;;15.20;99.90;;;;;;5115069;28;20250;-82
2022/09/08 02:27:44;;;;;;;2.37;0.90;;;;;;;;;;5114718;28;20199;-83
2022/09/08 02:30:11;;;;;;;2.80;0.90;;;15.20;99.90;;;;;;5116770;28;20640;-83
2022/09/08 02:32:37;;;;;;;3.70;1.03;;;15.10;99.90;;;;;;5116094;28;20644;-83
2022/09/08 02:35:03;;;;;;;2.93;1.20;;;15.10;99.90;;;;;;5117881;28;20255;-83
2022/09/08 02:37:29;;;;;;;2.87;1.00;;;15.10;99.90;;;;;;5117394;28;20171;-83
2022/09/08 02:39:55;;;;;;;2.63;1.17;;;;;;;;;;5117751;28;20660;-84
2022/09/08 02:42:23;;;;;;;2.60;1.20;;;15.20;99.90;;;;;;5115958;28;20196;-83
2022/09/08 02:44:48;;;;;;;2.40;1.20;;;15.20;99.90;;;;;;5115412;28;20194;-84
2022/09/08 02:47:14;;;;;;;2.67;1.13;;;;;;;;;;5120540;28;20254;-83
2022/09/08 02:49:40;;;;;;;3.67;1.30;;;15.20;99.90;;;;;;5120816;28;20656;-83
2022/09/08 02:52:08;;;;;;;1.67;1.00;;;;;;;;;;5120571;27;20193;-83
2022/09/08 02:54:34;;;;;;;1.97;1.10;;;15.20;99.90;;;;;;5120531;28;20202;-84
2022/09/08 02:57:00;;;;;;;1.27;0.93;;;;;;;;;;5120057;28;20536;-83
2022/09/08 02:59:26;;;;;;;2.83;1.50;;;15.10;99.90;;;;;;5119201;28;20274;-84
2022/09/08 03:01:52;;;;;;;1.40;1.30;;;;;;;;;;5118718;28;20291;-83
2022/09/08 03:04:18;;;;;;;1.50;1.20;;;15.00;99.90;;;;;;5119236;28;20278;-84
2022/09/08 03:06:44;;;;;;;1.77;1.37;;;;;;;;;;5118993;28;20588;-86
2022/09/08 03:09:10;;;;;;;2.10;1.30;;;15.00;99.90;;;;;;5119263;28;20230;-83
2022/09/08 03:11:36;;;;;;;1.93;1.43;;;;;;;;;;5120383;28;20278;-83
2022/09/08 03:14:03;;;;;;;5.87;2.30;;;15.00;99.90;;;;;;5119017;28;20647;-83
2022/09/08 03:16:29;;;;;;;1.87;1.37;;;15.00;99.90;;;;;;5119380;28;20224;-84
2022/09/08 03:18:55;;;;;;;1.97;1.50;;;;;;;;;;5120117;28;20254;-83
2022/09/08 03:21:21;;;;;;;1.63;1.13;;;14.90;99.90;;;;;;5119206;28;20198;-83
2022/09/08 03:23:48;;;;;;;1.97;1.23;;;;;;;;;;5118933;28;20179;-83
2022/09/08 03:26:16;;;;;;;3.90;1.40;;;15.00;99.90;;;;;;5118632;28;20180;-83
2022/09/08 03:28:43;;;;;;;1.53;1.10;;;14.90;99.90;;;;;;5117994;28;20211;-83
2022/09/08 03:31:11;;;;;;;3.73;1.13;;;14.90;99.90;;;;;;5118635;28;20244;-82
2022/09/08 03:33:37;;;;;;;1.77;1.23;;;;;;;;;;5118042;28;20663;-86
2022/09/08 03:36:05;;;;;;;3.00;1.30;;;14.90;99.90;;;;;;5119635;28;20199;-84
2022/09/08 03:38:32;;;;;;;1.57;1.10;;;15.00;99.90;;;;;;5117665;28;20171;-85
2022/09/08 03:40:58;;;;;;;1.57;1.10;;;14.90;99.90;;;;;;5119474;28;20691;-85
2022/09/08 03:43:25;;;;;;;2.47;1.17;;;;;;;;;;5118350;28;20258;-85
2022/09/08 03:45:51;;;;;;;2.30;1.37;;;;;;;;;;5118555;28;20266;-85
2022/09/08 03:48:17;;;;;;;2.00;1.40;;;;;;;;;;5118757;28;20193;-85
2022/09/08 03:50:43;;;;;;;3.40;1.70;;;15.10;99.90;;;;;;5118630;28;20237;-83
2022/09/08 03:53:10;;;;;;;2.57;1.60;;;14.90;99.90;;;;;;5118165;28;20225;-85
2022/09/08 03:55:41;;;;;;;2.20;1.37;;;15.00;99.90;;;;;;5118860;28;20179;-85
2022/09/08 03:58:10;;;;;;;1.50;1.33;;;15.00;99.90;;;;;;5118955;28;20235;-84
2022/09/08 04:00:38;;;;;;;1.50;1.40;;;15.00;99.90;;;;;;5119656;28;20218;-83
2022/09/08 06:57:52;;;;;;;1.30;0.90;;;14.40;99.90;;;;;;5156384;27;20277;-84
2022/09/08 07:00:23;;;;;;;1.20;1.03;;;14.40;99.90;;;;;;5114772;28;20170;-83
2022/09/08 07:02:56;;;;;;;2.23;1.20;;;14.40;99.90;;;;;;5094495;28;20262;-83
2022/09/08 07:05:53;;;;;;;1.93;1.00;;;14.40;99.90;;;;;;5094897;28;20533;-83
2022/09/08 07:08:47;;;;;;;1.10;1.00;;;14.40;99.90;;;;;;5094411;28;20217;-82
2022/09/08 07:11:21;;;;;;;1.17;1.00;;;14.40;99.90;;;;;;5112096;28;20541;-84
2022/09/08 07:14:07;;;;;;;1.03;0.90;;;14.40;99.90;;;;;;5112440;28;20534;-84
2022/09/08 07:16:38;;;;;;;0.80;0.80;;;14.40;99.90;;;;;;5112319;28;20265;-83
2022/09/08 07:19:13;;;;;;;1.10;0.70;;;14.40;99.90;;;;;;5112494;28;20160;-83
2022/09/08 07:21:47;;;;;;;1.30;0.80;;;14.50;99.90;;;;;;5112699;28;20184;-83
2022/09/08 07:24:15;;;;;;;2.53;0.80;;;14.50;99.90;;;;;;5112363;28;20164;-84
2022/09/08 07:26:49;;;;;;;1.87;1.10;;;14.50;99.90;;;;;;5093680;28;20183;-83
2022/09/08 07:29:20;;;;;;;1.10;0.70;;;14.60;99.90;;;;;;5094773;28;20180;-83
2022/09/08 07:31:50;;;;;;;1.93;0.70;;;14.60;99.90;;;;;;5094895;28;20222;-83
2022/09/08 07:34:22;;;;;;;1.60;0.80;;;14.70;99.90;;;;;;5094917;28;20641;-83
2022/09/08 07:37:05;;;;;;;4.40;0.80;;;14.70;99.90;;;;;;5095456;28;20199;-83
2022/09/08 07:39:39;;;;;;;0.70;0.70;;;14.70;99.90;;;;;;5095070;28;20172;-83
2022/09/08 07:42:18;;;;;;;1.07;0.70;;;14.80;99.90;;;;;;5095107;28;20216;-84
2022/09/08 07:44:46;;;;;;;5.13;0.90;;;14.80;99.90;;;;;;5113624;28;20160;-83
2022/09/08 07:47:48;;;;;;;0.90;0.80;;;14.90;99.90;;;;;;5112331;28;20172;-84
2022/09/08 07:50:53;;;;;;;0.80;0.60;;;15.00;99.90;;;;;;5095079;28;20164;-84
2022/09/08 07:53:26;;;;;;;1.30;0.90;;;14.90;99.90;;;;;;5111508;28;20774;-83
2022/09/08 07:55:54;;;;;;;1.30;0.80;;;14.90;99.90;;;;;;5093556;28;20215;-83
2022/09/08 07:58:31;;;;;;;0.60;0.50;;;14.90;99.90;;;;;;5111532;28;20632;-84
2022/09/08 08:01:19;;;;;;;1.43;0.60;;;15.00;99.90;;;;;;5112290;28;20212;-83
2022/09/08 08:03:50;;;;;;;0.80;0.60;;;15.00;99.90;;;;;;5093410;28;20221;-83
2022/09/08 08:06:43;;;;;;;1.47;0.70;;;15.00;99.90;;;;;;5111455;28;20176;-83
2022/09/08 08:09:13;;;;;;;0.60;0.60;;;15.00;99.90;;;;;;5078887;28;20169;-83
2022/09/08 08:12:15;;;;;;;0.90;0.60;;;15.00;99.90;;;;;;5097682;28;20192;-83
2022/09/08 08:14:46;;;;;;;1.63;0.80;;;15.00;99.90;;;;;;5080358;28;20172;-83
2022/09/08 08:17:27;;;;;;;2.10;0.70;;;15.00;99.90;;;;;;5079660;28;20565;-83
2022/09/08 08:20:11;;;;;;;1.57;0.77;;;15.00;99.90;;;;;;5097840;28;20165;-85
2022/09/08 08:22:55;;;;;;;1.40;0.67;;;15.00;99.90;;;;;;5097898;28;20188;-83
2022/09/08 08:25:29;;;;;;;0.87;0.67;;;15.10;99.90;;;;;;5079481;28;20171;-83
2022/09/08 08:28:00;;;;;;;0.70;0.60;;;15.10;99.90;;;;;;5097636;28;20145;-84
2022/09/08 08:30:28;;;;;;;0.60;0.53;;;15.10;99.90;;;;;;5079094;28;20321;-84
2022/09/08 08:33:16;;;;;;;1.00;0.60;;;15.20;99.90;;;;;;5097672;28;20646;-84
2022/09/08 08:36:04;;;;;;;1.53;0.70;;;15.20;99.90;;;;;;5079353;28;20237;-85
2022/09/08 08:38:34;;;;;;;0.83;0.57;;;15.10;99.90;;;;;;5097778;28;20157;-85
2022/09/08 08:41:06;;;;;;;2.27;0.80;;;15.20;99.90;;;;;;5079633;28;20307;-85
2022/09/08 08:43:40;;;;;;;0.70;0.53;;;15.10;99.90;;;;;;5079272;28;20162;-84
2022/09/08 08:46:38;;;;;;;1.10;0.60;;;15.10;99.90;;;;;;5079684;28;20164;-84
2022/09/08 08:49:41;;;;;;;2.87;0.60;;;15.10;99.90;;;;;;5098049;28;20239;-85
2022/09/08 08:52:31;;;;;;;1.13;0.60;;;15.20;99.90;;;;;;5079708;28;20192;-85
2022/09/08 08:54:56;;;;;;;2.67;0.70;;;15.10;99.90;;;;;;5080418;28;20225;-83
2022/09/08 08:57:49;;;;;;;1.13;0.57;;;15.10;99.90;;;;;;5079098;28;20219;-83
2022/09/08 09:00:18;;;;;;;1.30;0.70;;;15.20;99.90;;;;;;5097667;28;20236;-85
2022/09/08 09:03:02;;;;;;;0.67;0.50;;;15.20;99.90;;;;;;5097274;28;20172;-84
2022/09/08 09:05:46;;;;;;;0.80;0.80;;;15.20;99.90;;;;;;5097782;28;20152;-85
2022/09/08 09:08:39;;;;;;;0.97;0.60;;;15.30;99.90;;;;;;5079130;28;20176;-86
2022/09/08 09:11:17;;;;;;;1.03;0.73;;;15.40;99.90;;;;;;5079380;28;20200;-85
2022/09/08 09:13:45;;;;;;;1.13;0.50;;;15.30;99.90;;;;;;5079189;28;20187;-85
2022/09/08 09:16:50;;;;;;;1.37;0.57;;;15.40;99.90;;;;;;5097559;28;20196;-84
2022/09/08 09:19:43;;;;;;;2.10;0.60;;;15.40;99.90;;;;;;5078858;28;20669;-85
2022/09/08 09:22:24;;;;;;;0.67;0.67;;;15.40;99.90;;;;;;5079535;28;20192;-83
2022/09/08 09:25:17;;;;;;;1.10;0.70;;;15.40;99.90;;;;;;5098586;28;20157;-84
2022/09/08 09:27:47;;;;;;;0.90;0.70;;;15.40;99.90;;;;;;5097664;28;20618;-85
2022/09/08 09:30:47;;;;;;;1.93;0.50;;;15.40;99.90;;;;;;5080125;28;20275;-85
2022/09/08 09:33:34;;;;;;;0.70;0.60;;;15.50;99.90;;;;;;5057814;28;20558;-85
2022/09/08 09:36:23;;;;;;;2.20;0.60;;;15.50;99.90;;;;;;5078176;28;20196;-85
2022/09/08 09:38:58;;;;;;;0.57;0.50;;;15.70;99.90;;;;;;5097708;28;20185;-85
2022/09/08 09:41:30;;;;;;;0.60;0.60;;;15.90;99.90;;;;;;5097708;28;20218;-85
2022/09/08 09:44:31;;;;;;;0.73;0.50;;;16.00;99.90;;;;;;5098694;28;20164;-84
2022/09/08 09:47:18;;;;;;;0.80;0.70;;;16.10;99.90;;;;;;5097482;28;20587;-85
2022/09/08 09:49:58;;;;;;;0.73;0.50;;;16.20;99.90;;;;;;5078703;28;20172;-84
2022/09/08 09:52:45;;;;;;;1.00;0.70;;;16.10;99.90;;;;;;5077962;28;20200;-85
2022/09/08 09:55:29;;;;;;;1.00;0.60;;;16.10;99.90;;;;;;5096725;28;20244;-85
2022/09/08 09:58:13;;;;;;;0.67;0.60;;;16.10;99.90;;;;;;5097588;28;20206;-84
2022/09/08 10:00:41;;;;;;;0.97;0.57;;;16.30;99.90;;;;;;5079706;28;20207;-85
2022/09/08 10:03:17;;;;;;;0.90;0.60;;;;;;;;;;5097522;28;20175;-85
2022/09/08 10:06:10;;;;;;;1.90;0.60;;;16.60;99.90;;;;;;5079275;28;20175;-86
2022/09/08 10:08:58;;;;;;;0.60;0.60;;;16.90;99.90;;;;;;5097656;28;20173;-84
2022/09/08 10:11:42;;;;;;;0.50;0.50;;;17.30;99.90;;;;;;5079302;28;20193;-84
2022/09/08 10:14:23;;;;;;;1.90;0.60;;;;;;;;;;5097629;28;20170;-86
2022/09/08 10:17:03;;;;;;;1.47;0.60;;;17.70;99.90;;;;;;5079679;28;20196;-84
2022/09/08 10:20:08;;;;;;;0.83;0.60;;;18.00;99.90;;;;;;5097761;28;20627;-84
2022/09/08 10:23:16;;;;;;;0.73;0.53;;;18.70;99.90;;;;;;5096842;28;20213;-84
2022/09/08 10:25:59;;;;;;;1.83;0.60;;;18.70;99.90;;;;;;5046584;28;20197;-84
2022/09/08 10:28:44;;;;;;;0.90;0.60;;;18.60;99.90;;;;;;5079968;28;20171;-84
2022/09/08 10:31:13;;;;;;;1.03;0.63;;;18.70;99.90;;;;;;5098276;28;20652;-85
2022/09/08 10:33:59;;;;;;;0.67;0.63;;;19.20;99.90;;;;;;5097504;28;20179;-85
2022/09/08 10:37:01;;;;;;;1.17;0.57;;;19.30;99.90;;;;;;5078501;28;20200;-85
2022/09/08 10:39:53;;;;;;;0.80;0.70;;;19.20;99.90;;;;;;5038942;28;20191;-84
2022/09/08 10:42:48;;;;;;;1.37;0.80;;;19.20;99.90;;;;;;5077731;28;20712;-85
2022/09/08 10:45:35;;;;;;;0.70;0.67;;;19.80;99.90;;;;;;5096449;28;20649;-83
2022/09/08 10:48:11;;;;;;;0.70;0.60;;;20.30;99.90;;;;;;5077557;28;20170;-84
2022/09/08 10:50:47;;;;;;;3.70;0.70;;;20.80;99.90;;;;;;5078017;28;20661;-86
2022/09/08 10:53:37;;;;;;;1.23;0.53;;;21.00;99.90;;;;;;5079436;28;20213;-84
2022/09/08 10:56:11;;;;;;;0.60;0.60;;;21.60;99.90;;;;;;5078837;28;20207;-86
2022/09/08 10:58:50;;;;;;;1.00;0.93;;;21.80;99.90;;;;;;5079039;28;20168;-85
2022/09/08 11:01:54;;;;;;;1.57;0.70;;;22.80;99.90;;;;;;5078669;28;20192;-84
2022/09/08 11:04:45;;;;;;;1.30;0.80;;;23.10;99.90;;;;;;5076648;28;20304;-85
2022/09/08 11:07:30;;;;;;;0.97;0.83;;;23.10;99.90;;;;;;5076916;28;20663;-83
2022/09/08 11:10:22;;;;;;;0.70;0.60;;;23.50;99.90;;;;;;5095287;28;20173;-85
2022/09/08 11:13:16;;;;;;;2.00;0.60;;;23.40;99.90;;;;;;5076782;28;20234;-84
2022/09/08 11:15:50;;;;;;;1.07;0.60;;;23.30;99.90;;;;;;5077980;28;20202;-85
2022/09/08 11:18:19;;;;;;;1.13;0.80;;;23.20;99.90;;;;;;5096874;28;20167;-85
2022/09/08 11:20:53;;;;;;;1.10;0.70;;;23.30;99.90;;;;;;5096822;28;20201;-83
2022/09/08 11:23:19;;;;;;;0.60;0.60;;;;;;;;;;5078118;28;20213;-85
2022/09/08 11:26:17;;;;;;;0.70;0.70;;;22.80;99.90;;;;;;5096131;28;20234;-85
2022/09/08 11:29:05;;;;;;;1.03;0.77;;;23.50;99.90;;;;;;5095851;28;20157;-86
2022/09/08 11:31:46;;;;;;;1.20;0.90;;;24.00;99.90;;;;;;5078253;28;20203;-85
2022/09/08 11:34:37;;;;;;;2.40;0.90;;;24.40;99.90;;;;;;5096570;28;20166;-84
2022/09/08 11:37:30;;;;;;;1.90;0.80;;;24.10;99.90;;;;;;5096091;28;20168;-85
2022/09/08 11:40:25;;;;;;;1.37;0.80;;;24.50;99.90;;;;;;5077200;28;20175;-85
2022/09/08 11:43:06;;;;;;;0.80;0.60;;;24.60;99.90;;;;;;5079358;28;20204;-87
2022/09/08 11:45:53;;;;;;;0.80;0.60;;;24.30;99.90;;;;;;5081913;28;20175;-85
2022/09/08 11:48:34;;;;;;;0.63;0.60;;;24.40;99.90;;;;;;5101961;28;20200;-85
2022/09/08 11:51:15;;;;;;;1.40;0.70;;;24.20;99.90;;;;;;5084138;28;20209;-85
2022/09/08 11:53:50;;;;;;;0.70;0.50;;;23.90;99.90;;;;;;5082726;28;20172;-86
2022/09/08 11:56:31;;;;;;;2.03;0.80;;;23.90;99.90;;;;;;5100478;28;20230;-86
2022/09/08 11:59:30;;;;;;;0.80;0.70;;;24.40;99.90;;;;;;5084602;28;20172;-85
2022/09/08 12:02:17;;;;;;;1.20;0.80;;;24.00;99.90;;;;;;5101417;28;20219;-87
2022/09/08 12:05:12;;;;;;;3.17;0.73;;;24.60;99.90;;;;;;5101634;28;20645;-86
2022/09/08 12:08:03;;;;;;;1.03;0.80;;;24.70;99.90;;;;;;5072350;28;20250;-87
2022/09/08 12:10:56;;;;;;;1.80;0.60;;;24.90;99.90;;;;;;5086126;28;20663;-86
2022/09/08 12:14:02;;;;;;;1.90;0.83;;;24.80;99.90;;;;;;5085478;28;20244;-85
2022/09/08 12:16:46;;;;;;;0.67;0.60;;;23.10;99.90;;;;;;5075706;28;20578;-85
2022/09/08 12:19:32;;;;;;;1.93;0.80;;;24.10;99.90;;;;;;5085331;28;20168;-84
2022/09/08 12:21:58;;;;;;;2.63;0.77;;;;;;;;;;5081147;28;20211;-84
2022/09/08 12:24:33;;;;;;;1.23;0.60;;;25.20;99.90;;;;;;5100232;28;20169;-83
2022/09/08 12:27:10;;;;;;;1.10;0.80;;;25.60;99.90;;;;;;5080588;28;20219;-84
2022/09/08 12:29:59;;;;;;;1.27;0.80;;;25.70;99.90;;;;;;5102905;28;20640;-85
2022/09/08 12:32:47;;;;;;;0.80;0.77;;;25.70;99.90;;;;;;5102776;28;20282;-84
2022/09/08 12:35:35;;;;;;;3.00;1.00;;;25.00;99.90;;;;;;5105666;28;20218;-83
2022/09/08 12:38:27;;;;;;;1.03;0.80;;;25.40;99.90;;;;;;5089140;28;20177;-82
2022/09/08 12:41:29;;;;;;;2.10;1.00;;;25.20;99.90;;;;;;5042224;28;20205;-84
2022/09/08 12:44:21;;;;;;;1.57;1.27;;;25.50;99.90;;;;;;5086206;28;20167;-84
2022/09/08 12:46:47;;;;;;;1.03;0.60;;;;;;;;;;5100947;28;20207;-82
2022/09/08 12:49:34;;;;;;;0.93;0.70;;;25.30;99.90;;;;;;5082691;28;20579;-86
2022/09/08 12:52:02;;;;;;;1.33;0.80;;;25.70;99.90;;;;;;5101088;28;20554;-84
2022/09/08 12:54:28;;;;;;;2.50;0.90;;;;;;;;;;5083242;28;20177;-85
2022/09/08 12:57:27;;;;;;;1.73;0.93;;;26.20;99.90;;;;;;5083197;28;20194;-85
2022/09/08 13:00:03;;;;;;;2.20;0.97;;;26.50;99.90;;;;;;5101226;28;20264;-86
2022/09/08 13:03:00;;;;;;;2.90;0.80;;;26.00;99.90;;;;;;5082423;28;20202;-83
2022/09/08 13:05:38;;;;;;;1.73;0.80;;;25.20;99.90;;;;;;5082188;28;20634;-86
2022/09/08 13:08:22;;;;;;;1.07;0.90;;;25.50;99.90;;;;;;5099540;28;20164;-86
2022/09/08 13:10:53;;;;;;;0.60;0.60;;;25.70;99.90;;;;;;5099295;28;20196;-84
2022/09/08 13:13:40;;;;;;;1.70;0.80;;;25.40;99.90;;;;;;5080099;28;20164;-83
2022/09/08 13:16:18;;;;;;;2.77;0.90;;;25.90;99.90;;;;;;5099356;28;20175;-84
2022/09/08 13:19:21;;;;;;;1.10;0.90;;;26.20;99.90;;;;;;5099603;28;20181;-84
2022/09/08 13:22:09;;;;;;;2.10;0.90;;;26.10;99.90;;;;;;5085701;28;20207;-84
2022/09/08 13:24:53;;;;;;;1.90;0.97;;;26.70;99.90;;;;;;5081865;28;20209;-85
2022/09/08 13:27:19;;;;;;;1.23;0.70;;;;;;;;;;5100849;28;20216;-85
2022/09/08 13:30:00;;;;;;;1.30;0.77;;;27.40;99.90;;;;;;5101690;28;20165;-84
2022/09/08 13:32:42;;;;;;;1.57;0.90;;;27.50;99.50;;;;;;5101754;28;20209;-85
2022/09/08 13:35:24;;;;;;;3.07;1.10;;;27.30;99.90;;;;;;5103295;28;20513;-84
2022/09/08 13:37:56;;;;;;;0.83;0.83;;;27.20;96.90;;;;;;5085324;28;20165;-84
2022/09/08 13:40:52;;;;;;;1.70;0.97;;;27.10;99.40;;;;;;5096899;28;20165;-83
2022/09/08 13:43:55;;;;;;;3.43;1.00;;;26.60;94.70;;;;;;5078465;28;20169;-84
2022/09/08 13:46:58;;;;;;;2.43;0.83;;;26.00;98.20;;;;;;5078272;28;20205;-83
2022/09/08 13:50:03;;;;;;;1.27;0.53;;;26.10;98.80;;;;;;5096247;28;20186;-85
2022/09/08 13:52:47;;;;;;;2.07;0.70;;;26.10;99.90;;;;;;5077791;28;20206;-82
2022/09/08 13:55:37;;;;;;;1.73;0.77;;;27.10;97.50;;;;;;5077347;28;20180;-81
2022/09/08 13:58:36;;;;;;;1.13;0.67;;;27.60;99.90;;;;;;5097164;28;20181;-84
2022/09/08 14:01:12;;;;;;;0.83;0.73;;;27.00;98.20;;;;;;5025195;28;20261;-84
2022/09/08 14:03:50;;;;;;;1.47;0.77;;;27.60;97.10;;;;;;5096558;28;20210;-81
2022/09/08 14:06:18;;;;;;;1.47;0.80;;;27.60;93.50;;;;;;5078019;28;20295;-83
2022/09/08 14:08:47;;;;;;;0.80;0.70;;;26.80;94.00;;;;;;5078744;28;20176;-83
2022/09/08 14:11:33;;;;;;;2.27;0.77;;;26.70;93.80;;;;;;5096529;28;20226;-85
2022/09/08 14:14:22;;;;;;;1.30;0.73;;;26.90;98.20;;;;;;5095676;28;20156;-84
2022/09/08 14:16:51;;;;;;;1.13;0.77;;;27.10;95.50;;;;;;5077653;28;20179;-85
2022/09/08 14:19:42;;;;;;;3.13;0.80;;;27.60;97.20;;;;;;5077838;28;20181;-84
2022/09/08 14:22:16;;;;;;;1.13;0.60;;;27.10;97.00;;;;;;5078217;28;20207;-85
2022/09/08 14:25:13;;;;;;;1.57;0.87;;;26.50;95.50;;;;;;5078134;28;20669;-85
2022/09/08 14:28:09;;;;;;;1.07;0.60;;;26.80;93.90;;;;;;5079298;28;20250;-83
2022/09/08 14:30:56;;;;;;;2.23;0.90;;;26.70;90.80;;;;;;5077572;28;20204;-84
2022/09/08 14:33:37;;;;;;;1.07;0.70;;;26.70;96.70;;;;;;5095396;28;20183;-83
2022/09/08 14:36:40;;;;;;;2.87;0.80;;;26.60;96.60;;;;;;5095135;28;20193;-83
2022/09/08 14:39:45;;;;;;;1.57;0.70;;;26.60;95.50;;;;;;5095062;28;20211;-83
2022/09/08 14:42:50;;;;;;;1.00;0.80;;;27.70;95.50;;;;;;5076662;28;20573;-83
2022/09/08 14:45:19;;;;;;;1.03;0.63;;;;;;;;;;5095534;28;20582;-85
2022/09/08 14:47:53;;;;;;;1.17;0.70;;;27.50;93.90;;;;;;5094858;28;20257;-84
2022/09/08 14:50:26;;;;;;;1.20;0.70;;;27.20;91.30;;;;;;5095434;28;20175;-86
2022/09/08 14:53:20;;;;;;;1.40;0.90;;;26.20;87.60;;;;;;5095522;28;20640;-85
2022/09/08 14:56:09;;;;;;;0.80;0.70;;;26.60;92.30;;;;;;5077582;28;20203;-85
2022/09/08 14:58:55;;;;;;;1.40;0.80;;;26.40;88.50;;;;;;5077216;28;20175;-84
2022/09/08 15:01:38;;;;;;;1.07;0.70;;;25.90;91.40;;;;;;5077175;28;20210;-86
2022/09/08 15:04:31;;;;;;;1.20;0.60;;;25.80;90.60;;;;;;5077608;28;20171;-85
2022/09/08 15:07:21;;;;;;;1.63;0.70;;;26.30;93.30;;;;;;5077111;28;20209;-83
2022/09/08 15:09:54;;;;;;;1.10;0.77;;;26.50;95.70;;;;;;5076987;28;20170;-85
2022/09/08 15:12:28;;;;;;;0.77;0.60;;;25.60;94.10;;;;;;5077399;28;20771;-83
2022/09/08 15:14:58;;;;;;;1.03;0.73;;;25.50;93.70;;;;;;5096984;28;20181;-84
2022/09/08 15:17:32;;;;;;;1.87;0.90;;;25.50;91.50;;;;;;5078508;28;20183;-86
2022/09/08 15:20:10;;;;;;;0.80;0.70;;;25.50;92.90;;;;;;5100298;28;20158;-85
2022/09/08 15:23:33;;;;;;;0.87;0.70;;;25.50;93.20;;;;;;5102740;28;20196;-80
2022/09/08 15:26:09;;;;;;;0.90;0.73;;;25.10;94.70;;;;;;5019212;28;20191;-80
2022/09/08 15:28:44;;;;;;;1.47;0.80;;;25.00;93.40;;;;;;4999278;28;20253;-81
2022/09/08 15:31:24;;;;;;;1.17;0.60;;;24.80;93.00;;;;;;5060516;28;20204;-84
2022/09/08 15:34:05;;;;;;;2.30;0.60;;;24.60;94.70;;;;;;5100290;28;20637;-84
2022/09/08 15:36:31;;;;;;;1.00;0.83;;;23.90;92.30;;;;;;5099381;28;20173;-82
2022/09/08 15:39:23;;;;;;;1.10;0.90;;;23.60;95.90;;;;;;5080939;28;20183;-85
2022/09/08 15:42:06;;;;;;;1.37;0.80;;;23.20;95.00;;;;;;5099528;28;20719;-83
2022/09/08 15:44:47;;;;;;;1.53;0.80;;;22.50;97.50;;;;;;5080819;28;20199;-82
2022/09/08 15:47:35;;;;;;;0.93;0.70;;;22.50;98.40;;;;;;5080879;28;20713;-83
2022/09/08 15:50:38;;;;;;;2.17;0.80;;;21.70;96.30;;;;;;5034615;28;20634;-85
2022/09/08 15:53:23;;;;;;;3.23;0.70;;;21.50;98.60;;;;;;5099109;28;20174;-83
2022/09/08 15:56:09;;;;;;;1.40;1.10;;;21.20;96.90;;;;;;5080614;28;20642;-85
2022/09/08 15:58:59;;;;;;;2.00;0.80;;;21.00;98.60;;;;;;5098749;28;20243;-85
2022/09/08 16:01:59;;;;;;;1.53;0.90;;;20.90;99.90;;;;;;5098547;28;20196;-85
2022/09/08 16:04:43;;;;;;;1.53;1.00;;;20.80;99.80;;;;;;5098551;28;20169;-84
2022/09/08 16:07:26;;;;;;;5.47;1.00;;;20.70;99.70;;;;;;5080098;28;20222;-82
2022/09/08 16:10:19;;;;;;;2.63;0.90;;;20.60;99.30;;;;;;5098661;28;20188;-81
2022/09/08 16:12:53;;;;;;;1.77;0.90;;;20.60;98.70;;;;;;5098708;28;20152;-85
2022/09/08 16:15:32;;;;;;;2.30;0.90;;;20.40;99.70;;;;;;5080135;28;20256;-85
2022/09/08 16:18:08;;;;;;;1.23;0.90;;;20.30;99.90;;;;;;5098683;28;20255;-84
2022/09/08 16:20:37;;;;;;;1.77;0.70;;;20.30;99.90;;;;;;5098878;28;20160;-83
2022/09/08 16:23:19;;;;;;;2.10;0.97;;;20.20;99.80;;;;;;5080303;28;20180;-83
2022/09/08 16:25:57;;;;;;;4.07;0.80;;;20.10;99.90;;;;;;5098604;28;20203;-84
2022/09/08 16:28:35;;;;;;;2.13;0.57;;;20.00;99.70;;;;;;5098015;28;20225;-85
2022/09/08 16:31:33;;;;;;;2.30;0.93;;;20.00;99.90;;;;;;5080795;28;20665;-85
2022/09/08 16:34:07;;;;;;;1.87;0.70;;;19.90;99.90;;;;;;5099368;28;20187;-84
2022/09/08 16:36:34;;;;;;;2.60;0.90;;;19.90;99.90;;;;;;5100538;28;20725;-85
2022/09/08 16:39:09;;;;;;;1.47;0.77;;;19.80;99.90;;;;;;5082889;28;20184;-85
2022/09/08 16:41:59;;;;;;;1.50;0.83;;;19.70;99.90;;;;;;5101249;28;20267;-85
2022/09/08 16:44:29;;;;;;;1.83;1.10;;;19.60;99.90;;;;;;5084058;28;20174;-82
2022/09/08 16:47:10;;;;;;;1.53;0.80;;;19.60;99.90;;;;;;5086345;28;20260;-83
2022/09/08 16:49:49;;;;;;;1.90;0.83;;;19.50;99.90;;;;;;5079481;28;20201;-83
2022/09/08 16:52:44;;;;;;;1.87;0.73;;;19.40;99.90;;;;;;5099325;28;20188;-84
2022/09/08 16:55:33;;;;;;;2.53;0.90;;;19.40;99.90;;;;;;5098777;28;20259;-84
2022/09/08 16:58:25;;;;;;;1.67;1.00;;;19.30;99.90;;;;;;5098671;28;20298;-84